Terminal Aerodrome Forecast
Issued by NWS Jacksonville, FL

Home | Current Version | Previous Version | Text Only | Print | Product List | Glossary On
Versions: 1 2 3 4 5 6 7 8 9 10 11 12 13 14 15 16 17
000
FTUS42 KJAX 241120
TAFSSI
TAF
KSSI 241120Z 2412/2512 08012KT P6SM SCT035
     FM241400 09014G22KT P6SM SCT030
     FM241600 10015G25KT P6SM SCT020 BKN035
     FM242100 10012KT P6SM SCT030=

USA.gov is the U.S. government's official web portal to all federal, state and local government web resources and services.